EDT,Max TemperatureF,Mean TemperatureF,Min TemperatureF,Max Dew PointF,MeanDew PointF,Min DewpointF,Max Humidity, Mean Humidity, Min Humidity, Max Sea Level PressureIn, Mean Sea Level PressureIn, Min Sea Level PressureIn, Max VisibilityMiles, Mean VisibilityMiles, Min VisibilityMiles, Max Wind SpeedMPH, Mean Wind SpeedMPH, Max Gust SpeedMPH,PrecipitationIn, CloudCover, Events, WindDirDegrees
2013-10-1,70,58,45,65,59,46,100,94,82,29.93,29.90,29.87,10,8,2,16,5,23,0.00,4,,203
2013-10-2,74,60,47,64,47,33,100,68,23,30.11,30.04,29.92,10,10,7,12,4,,0.00,0,,286
2013-10-3,78,61,44,67,56,43,100,86,61,30.07,29.97,29.90,10,9,5,12,3,22,0.00,5,,208
2013-10-4,73,68,62,70,67,63,100,98,86,30.05,29.98,29.87,10,7,2,16,5,24,0.14,8,Rain,178
2013-10-5,67,63,59,67,63,59,100,100,100,30.05,29.96,29.81,10,6,3,15,7,17,0.66,8,Rain,116
2013-10-6,67,56,45,67,60,45,100,99,93,29.80,29.71,29.67,10,8,2,14,5,18,0.18,6,Rain,216
2013-10-7,59,52,44,52,48,42,100,89,54,30.07,29.80,29.64,10,10,5,16,5,26,0.13,5,Rain,258
2013-10-8,68,52,37,50,45,37,100,78,45,30.23,30.18,30.08,10,9,0,17,3,24,0.00,1,Fog,172
2013-10-9,69,56,42,50,46,42,100,74,44,30.30,30.24,30.19,10,10,7,10,4,18,0.00,0,,178
2013-10-10,70,54,37,50,45,37,100,80,41,30.23,30.18,30.12,10,10,2,8,1,,0.00,0,,160
2013-10-11,69,53,37,52,44,37,100,75,38,30.16,30.11,30.06,10,9,0,13,3,21,0.00,1,Fog,143
2013-10-12,76,58,41,63,52,42,100,80,42,30.09,30.04,29.98,10,10,4,18,4,25,0.19,2,Rain,210
2013-10-13,59,50,42,58,45,40,100,78,55,30.39,30.27,30.09,10,10,10,12,6,21,0.00,2,,291
2013-10-14,59,47,35,44,38,33,100,75,37,30.44,30.36,30.27,10,10,7,8,1,,0.00,1,,81
2013-10-15,62,49,36,60,49,37,100,93,71,30.26,29.99,29.75,10,8,2,15,4,22,0.37,4,Rain,173
2013-10-16,60,54,49,60,51,48,100,96,79,29.88,29.79,29.75,10,8,2,15,7,22,0.09,8,Rain,250
2013-10-17,49,43,36,49,47,36,100,100,97,29.88,29.82,29.75,10,8,2,9,1,,0.24,7,Rain,326
2013-10-18,58,46,34,49,41,35,100,86,55,29.86,29.81,29.78,10,7,0,17,6,25,0.00,6,Fog,218
2013-10-19,52,46,38,46,40,32,100,84,47,29.84,29.76,29.72,10,9,2,16,6,29,0.10,6,Rain,259
2013-10-20,53,45,37,49,40,34,100,86,50,29.86,29.78,29.71,10,9,3,13,3,21,0.15,7,Rain,204
2013-10-21,50,44,37,49,38,25,100,78,61,29.84,29.78,29.71,10,10,7,17,8,25,0.00,7,Rain,260
2013-10-22,47,40,33,35,31,24,98,71,55,29.87,29.83,29.80,10,10,5,16,8,24,0.00,7,Rain,275
2013-10-23,42,37,32,36,32,24,100,85,48,29.91,29.87,29.84,10,9,0,14,4,21,0.00,7,Fog-Snow,304
2013-10-24,42,36,31,36,33,29,100,89,62,30.15,30.01,29.90,10,10,2,15,5,22,0.00,5,Rain-Snow,295
2013-10-25,48,38,30,35,31,26,100,75,50,30.28,30.16,29.90,10,10,10,22,6,33,0.00,5,,253
2013-10-26,52,46,38,39,35,31,83,69,50,29.99,29.80,29.68,10,9,4,26,15,44,0.14,7,Rain,280
2013-10-27,50,42,33,36,32,27,97,70,48,30.00,29.96,29.91,10,10,10,20,4,25,0.00,5,,240
2013-10-28,44,40,34,36,32,28,83,71,59,30.41,30.25,29.99,10,10,10,10,6,16,0.00,6,,60
2013-10-29,39,32,26,35,29,23,100,85,72,30.45,30.36,30.21,10,10,10,8,2,,0.00,4,,81
2013-10-30,59,44,28,50,39,29,100,86,64,30.22,30.08,29.84,10,8,4,13,3,17,0.00,3,,147
2013-10-31,61,57,53,61,58,52,100,100,85,29.82,29.47,29.06,10,6,0,13,6,22,0.81,8,Fog-Rain,189